Caruthers, California
Current Conditions -  °F | °C
As of 5:56 PM on Wednesday 17 Dec 2014 (Local Time) from KNLC Reporting Station
Broken Clouds Broken Clouds  
Wind Chill: 53°   Ceiling: 18000
Heat Index: 53°   Visibility: 10mi
Dew Point: 48°   Wind: 5mph
Humidity: 83%   Direction: 140°SE
Pressure: 30.1"   Gusts: NA
Location:  36.54°N, 119.84°W
Report Text: KNLC 180156Z 14004KT 10SM FEW035 FEW065 SCT120 BKN180 12/09 A3010 RMK AO2 SLP193 RH/83 T01170089 $
Loading
Personal Weather Stations






























Interactive Weather Map New forecast layout! Learn more

10-Day Weather Forecast

Advertisements
Track Severe Weather on mobile